Thunder radar more information blitzortung!


Radar de pluja more information rain snow radar


Visita la nostra xarxa de llocs de meteo:

Template documentation
and downloads

And another site



No particular awareness of the weather is required.    There are no Weather-warnings

Pagina Historial Weather Underground text

Diari Resum Setembre 26, 2017 Unitats:  Mètric    Imperial   Tant
« Previous Dia
SegĂźent Dia »
Diari Setmana Mensual Anual Personalitzada
  Maxima: Minima: Media:
Temperatura: -17.8 °C -9.4 °C -6.4 °C
Punt de rosada: -17.8 °C -11.3 °C -10.6 °C
Humitat: Humidity % 44 % 63 %
Wind Speed: 0 km/h 0 km/h 8.2 km/h
RĂ fegues de vent: 0 km/h - -
Vent:- - SSW
Pression baro: 0 hPa 34462.7 hPa -
Precipitacions: 0 mm    
Historical Graphs
 
 
Dades de taula per Setembre 26, 2017
Temps Temperatura Punt de rosada Pression baro Vent Wind Speed RĂ fegues de vent Humitat Rainfall Rate (Hourly)
-17.8 °C -17.8 °C 0 hPa Calm     Humidity % 0 mm
00:05 -6.4 °C -10.1 °C 34601.5 hPa East 5.1 km/h 7.7 km/h 66 % 0 mm
05:10 -6.2 °C -10 °C 34601.5 hPa NE 8.5 km/h 8.5 km/h 65 % 0 mm
05:15 -6.3 °C -10.1 °C 34601.5 hPa ENE 6 km/h 6.8 km/h 65 % 0 mm
05:20 -6.2 °C -10.1 °C 34567.7 hPa ESE 9 km/h 9 km/h 64 % 0 mm
05:25 -6 °C -10.1 °C 34567.7 hPa East 9 km/h 9 km/h 63 % 0 mm
05:30 -5.9 °C -9.9 °C 34567.7 hPa ESE 9.3 km/h 9.3 km/h 63 % 0 mm
05:35 -5.9 °C -9.9 °C 34567.7 hPa SSE 9 km/h 9 km/h 63 % 0 mm
05:40 -5.7 °C -9.9 °C 34567.7 hPa ESE 11.9 km/h 11.9 km/h 62 % 0 mm
05:45 -5.4 °C -9.8 °C 34567.7 hPa NNE 6 km/h 6.3 km/h 61 % 0 mm
05:50 -5.7 °C -10.1 °C 34601.5 hPa NNE 9 km/h 9 km/h 61 % 0 mm
05:55 -5.8 °C -10.1 °C 34601.5 hPa ESE 11.9 km/h 11.9 km/h 61 % 0 mm
06:00 -5.7 °C -10.1 °C 34601.5 hPa ESE 6 km/h 6 km/h 61 % 0 mm
06:05 -5.5 °C -10.1 °C 34601.5 hPa ESE 6 km/h   60 % 0 mm
06:10 -5.3 °C -9.8 °C 34601.5 hPa NNE 9 km/h 9 km/h 60 % 0 mm
06:15 -5.4 °C -10.1 °C 34601.5 hPa ESE 11.9 km/h 11.9 km/h 59 % 0 mm
06:20 -5.3 °C -9.9 °C 34601.5 hPa ESE 11.9 km/h 11.9 km/h 59 % 0 mm
06:25 -5.1 °C -9.8 °C 34601.5 hPa ESE 9 km/h 9 km/h 59 % 0 mm
06:30 -5.1 °C -9.8 °C 34601.5 hPa NW 6 km/h 6 km/h 59 % 0 mm
06:35 -4.9 °C -9.7 °C 34601.5 hPa SSW 6 km/h 6 km/h 58 % 0 mm
06:40 -4.8 °C -9.7 °C 34601.5 hPa WSW 4.2 km/h 5.1 km/h 58 % 0 mm
06:45 -4.6 °C -9.3 °C 34601.5 hPa SW 15 km/h 15 km/h 59 % 0 mm
06:50 -4.5 °C -9.8 °C 34601.5 hPa WSW 6 km/h 6 km/h 55 % 0 mm
06:55 -4.2 °C -9.4 °C 34601.5 hPa WNW 15 km/h 15 km/h 56 % 0 mm
07:00 -4.2 °C -9.5 °C 34601.5 hPa West 15 km/h 15 km/h 55 % 0 mm
07:01 -4.2 °C -9.5 °C 34567.7 hPa SW 15.3 km/h 15.3 km/h 55 % 0 mm
07:06 -4.1 °C -9.6 °C 34567.7 hPa WNW 9 km/h 9 km/h 54 % 0 mm
07:11 -4.1 °C -9.8 °C 34567.7 hPa WNW 15 km/h 15 km/h 53 % 0 mm
07:16 -4.5 °C -10 °C 34567.7 hPa SW 9 km/h 9 km/h 54 % 0 mm
07:21 -4.6 °C -10.1 °C 34567.7 hPa SSW 9 km/h 9 km/h 54 % 0 mm
07:26 -4.5 °C -10 °C 34567.7 hPa SW 11.9 km/h 11.9 km/h 54 % 0 mm
07:31 -4.2 °C -9.8 °C 34567.7 hPa WSW 15 km/h 15 km/h 53 % 0 mm
07:36 -4 °C -9.7 °C 34567.7 hPa SSW 15 km/h 15 km/h 53 % 0 mm
07:46 -3.9 °C -10.1 °C 34533.8 hPa SW 11.9 km/h 11.9 km/h 50 % 0 mm
07:51 -4.2 °C -10.2 °C 34533.8 hPa SSW 9 km/h 9 km/h 51 % 0 mm
07:56 -3.9 °C -10.1 °C 34533.8 hPa WSW 10.3 km/h 10.3 km/h 50 % 0 mm
08:01 -4.2 °C -10.3 °C 34533.8 hPa SW 17.9 km/h 17.9 km/h 50 % 0 mm
08:06 -4.3 °C -10.4 °C 34533.8 hPa WSW 20.9 km/h 20.9 km/h 50 % 0 mm
08:11 -4.2 °C -10.5 °C 34533.8 hPa SSW 15 km/h 15 km/h 49 % 0 mm
08:16 -3.8 °C -10.2 °C 34533.8 hPa SSW 15.3 km/h 15.3 km/h 49 % 0 mm
08:21 -3.8 °C -10.4 °C 34533.8 hPa South 9 km/h 9 km/h 48 % 0 mm
08:26 -3.8 °C -10.4 °C 34533.8 hPa WSW 11.9 km/h 11.9 km/h 48 % 0 mm
08:31 -3.8 °C -10.3 °C 34533.8 hPa WSW 11.9 km/h 11.9 km/h 48 % 0 mm
08:36 -3.8 °C -10.6 °C 34533.8 hPa SSW 11.9 km/h 11.9 km/h 47 % 0 mm
08:41 -3.8 °C -10.5 °C 34533.8 hPa SW 11.9 km/h 11.9 km/h 47 % 0 mm
08:46 -3.9 °C -10.6 °C 34496.6 hPa South 15 km/h 15 km/h 47 % 0 mm
08:51 -3.7 °C -10.4 °C 34496.6 hPa SW 11.9 km/h 11.9 km/h 47 % 0 mm
08:56 -4 °C -10.5 °C 34496.6 hPa SW 26.9 km/h 26.9 km/h 48 % 0 mm
09:01 -4.3 °C -10.8 °C 34496.6 hPa WSW 23.8 km/h 23.8 km/h 48 % 0 mm
09:06 -4.1 °C -10.7 °C 34496.6 hPa South 17.9 km/h 17.9 km/h 48 % 0 mm
09:11 -4.3 °C -10.8 °C 34496.6 hPa SW 20.9 km/h 20.9 km/h 48 % 0 mm
09:16 -3.9 °C -10.5 °C 34496.6 hPa WSW 15.3 km/h 15.3 km/h 48 % 0 mm
09:21 -3.9 °C -10.6 °C 34496.6 hPa SW 16.1 km/h 16.1 km/h 47 % 0 mm
09:26 -3.9 °C -10.7 °C 34496.6 hPa SW 29.8 km/h 29.8 km/h 47 % 0 mm
09:31 -3.7 °C -10.6 °C 34496.6 hPa South 11.9 km/h 11.9 km/h 46 % 0 mm
09:36 -3.5 °C -10.4 °C 34496.6 hPa West 15 km/h 15 km/h 46 % 0 mm
09:41 -3.5 °C -10.4 °C 34496.6 hPa SW 20.9 km/h 20.9 km/h 46 % 0 mm
09:46 -3.7 °C -10.8 °C 34496.6 hPa SW 15 km/h 15 km/h 45 % 0 mm
09:51 -3.6 °C -10.7 °C 34496.6 hPa SW 20.9 km/h 20.9 km/h 45 % 0 mm
09:56 -3.6 °C -10.7 °C 34496.6 hPa SSW 20.9 km/h 20.9 km/h 45 % 0 mm
10:01 -3.4 °C -10.6 °C 34496.6 hPa WSW 20.3 km/h 20.3 km/h 45 % 0 mm
10:06 -3.6 °C -10.7 °C 34496.6 hPa SSW 15 km/h 20.3 km/h 45 % 0 mm
10:11 -3.8 °C -11.1 °C 34496.6 hPa SSW 32.8 km/h 32.8 km/h 44 % 0 mm
10:16 -3.7 °C -10.9 °C 34496.6 hPa WSW 11.9 km/h 11.9 km/h 44 % 0 mm
10:21 -3.7 °C -11 °C 34496.6 hPa WSW 23.8 km/h 23.8 km/h 44 % 0 mm
10:26 -3.9 °C -11 °C 34496.6 hPa WSW 20.9 km/h 20.9 km/h 45 % 0 mm
10:31 -4.1 °C -11.2 °C 34496.6 hPa SW 20.9 km/h 20.9 km/h 45 % 0 mm
10:36 -4.3 °C -11.3 °C 34496.6 hPa SSW 11.1 km/h 11.1 km/h 45 % 0 mm
10:41 -4.4 °C -11.2 °C 34496.6 hPa SW 23.8 km/h 23.8 km/h 46 % 0 mm
10:46 -4.4 °C -11.3 °C 34496.6 hPa SW 16.1 km/h 16.1 km/h 46 % 0 mm
10:51 -4.4 °C -11.3 °C 34496.6 hPa SSW 23.8 km/h 23.8 km/h 46 % 0 mm
10:56 -4.6 °C -11.3 °C 34496.6 hPa West 20.9 km/h 20.9 km/h 47 % 0 mm
11:01 -4.6 °C -11.3 °C 34496.6 hPa SSE 15 km/h 15 km/h 47 % 0 mm
11:06 -4.6 °C -11.2 °C 34496.6 hPa South 9 km/h 9 km/h 47 % 0 mm
11:11 -4.7 °C -11.3 °C 34496.6 hPa SSW 11.9 km/h 11.9 km/h 47 % 0 mm
11:16 -4.8 °C -11.3 °C 34496.6 hPa SW 23.8 km/h 23.8 km/h 48 % 0 mm
11:21 -4.8 °C -11.2 °C 34496.6 hPa SW 20.9 km/h 20.9 km/h 48 % 0 mm
11:27 -4.8 °C -11.2 °C 34496.6 hPa SSW 26.9 km/h 26.9 km/h 48 % 0 mm
11:32 -4.7 °C -11.2 °C 34462.7 hPa SW 15 km/h 15 km/h 48 % 0 mm
11:37 -4.7 °C -11.2 °C 34462.7 hPa WSW 22.5 km/h 22.5 km/h 48 % 0 mm
11:42 -4.9 °C -11.2 °C 34462.7 hPa SSW 15 km/h 15 km/h 49 % 0 mm
11:47 -4.9 °C -11.2 °C 34496.6 hPa WSW 17.9 km/h 17.9 km/h 49 % 0 mm
11:52 -5.1 °C -11.2 °C 34496.6 hPa SSW 23.8 km/h 23.8 km/h 50 % 0 mm
11:57 -5.2 °C -11.2 °C 34496.6 hPa SSW 11.9 km/h 11.9 km/h 51 % 0 mm
12:02 -5.3 °C -11.2 °C 34496.6 hPa SSW 17.9 km/h 17.9 km/h 51 % 0 mm
12:07 -5.3 °C -11.2 °C 34496.6 hPa SW 11.9 km/h 11.9 km/h 51 % 0 mm
12:12 -5.4 °C -11.2 °C 34496.6 hPa SW 16.1 km/h 16.1 km/h 52 % 0 mm
12:17 -5.6 °C -11.3 °C 34496.6 hPa WSW 26.9 km/h 26.9 km/h 52 % 0 mm
12:22 -5.7 °C -11.2 °C 34496.6 hPa SSW 24.3 km/h 24.3 km/h 53 % 0 mm
12:27 -5.8 °C -11.3 °C 34496.6 hPa SSW 17.9 km/h 17.9 km/h 53 % 0 mm
12:32 -5.9 °C -11.3 °C 34496.6 hPa West 15 km/h 15 km/h 54 % 0 mm
12:37 -5.9 °C -11.3 °C 34496.6 hPa West 15.6 km/h 15.6 km/h 54 % 0 mm
12:42 -5.9 °C -11.2 °C 34496.6 hPa WSW 9 km/h 9 km/h 55 % 0 mm
12:47 -6 °C -11.1 °C 34496.6 hPa SSW 20.9 km/h 20.9 km/h 56 % 0 mm
12:52 -6.1 °C -11.1 °C 34496.6 hPa SW 9.8 km/h 9.8 km/h 56 % 0 mm
12:57 -6.1 °C -11 °C 34496.6 hPa SSW 11.9 km/h 11.9 km/h 57 % 0 mm
13:02 -6.1 °C -11 °C 34533.8 hPa South 11.9 km/h 11.9 km/h 57 % 0 mm
13:07 -6.1 °C -11 °C 34533.8 hPa SSW 15 km/h 15 km/h 57 % 0 mm
13:12 -6.1 °C -11 °C 34533.8 hPa SSW 9 km/h 9 km/h 57 % 0 mm
13:17 -6 °C -10.9 °C 34533.8 hPa SW 11.9 km/h 11.9 km/h 57 % 0 mm
13:22 -6 °C -10.8 °C 34533.8 hPa WSW 6 km/h 6 km/h 58 % 0 mm
13:25 -7.1 °C -10.2 °C 34635.4 hPa SW 2.6 km/h 5.1 km/h 70 % 0 mm
13:27 -6 °C -10.8 °C 34533.8 hPa SW 9.3 km/h 9.3 km/h 58 % 0 mm
13:32 -6.1 °C -10.8 °C 34533.8 hPa West 15.3 km/h 15.3 km/h 58 % 0 mm
13:35 -7.2 °C -10.3 °C 34635.4 hPa SW 2.6 km/h 5.1 km/h 70 % 0 mm
13:37 -6.1 °C -10.9 °C 34533.8 hPa SSE 9 km/h 9 km/h 58 % 0 mm
13:42 -6.2 °C -10.9 °C 34533.8 hPa SSW 11.9 km/h 11.9 km/h 58 % 0 mm
13:45 -7.2 °C -10.2 °C 34635.4 hPa SW 2.6 km/h 2.6 km/h 71 % 0 mm
13:47 -6.3 °C -10.9 °C 34533.8 hPa SW 4.2 km/h 4.2 km/h 59 % 0 mm
13:52 -6.3 °C -10.9 °C 34533.8 hPa SSW 6 km/h 6 km/h 59 % 0 mm
13:55 -7.2 °C -10.2 °C 34635.4 hPa WSW 2.6 km/h 2.6 km/h 71 % 0 mm
13:57 -6.4 °C -11 °C 34533.8 hPa WSW 6 km/h 6 km/h 59 % 0 mm
14:02 -6.4 °C -10.9 °C 34533.8 hPa SSW 6 km/h 6 km/h 60 % 0 mm
14:05 -7.1 °C -10.1 °C 34635.4 hPa Calm   2.6 km/h 71 % 0 mm
14:07 -6.4 °C -10.9 °C 34533.8 hPa WSW 6.8 km/h 6.8 km/h 60 % 0 mm
14:12 -6.4 °C -10.9 °C 34533.8 hPa SW 3.1 km/h   60 % 0 mm
14:15 -7.2 °C -10.2 °C 34635.4 hPa Calm   5.1 km/h 71 % 0 mm
14:17 -6.4 °C -10.8 °C 34567.7 hPa WSW 6 km/h 6 km/h 61 % 0 mm
14:22 -6.4 °C -10.8 °C 34567.7 hPa SW 6 km/h 6 km/h 61 % 0 mm
14:25 -7.2 °C -10.2 °C 34635.4 hPa WSW 2.6 km/h 2.6 km/h 71 % 0 mm
14:27 -6.4 °C -10.8 °C 34567.7 hPa SW 3.1 km/h   61 % 0 mm
14:32 -6.4 °C -10.8 °C 34601.5 hPa SW 15 km/h 15 km/h 61 % 0 mm
14:35 -7.2 °C -10.2 °C 34635.4 hPa WSW 2.6 km/h 5.1 km/h 71 % 0 mm
14:37 -6.5 °C -10.8 °C 34601.5 hPa SSW 7.6 km/h 7.6 km/h 61 % 0 mm
14:42 -6.5 °C -10.7 °C 34601.5 hPa SW 7.6 km/h 7.6 km/h 62 % 0 mm
14:45 -7.3 °C -10.2 °C 34635.4 hPa West 2.6 km/h 7.7 km/h 72 % 0 mm
14:47 -6.6 °C -10.7 °C 34601.5 hPa SSW 11.9 km/h 11.9 km/h 62 % 0 mm
14:52 -6.6 °C -10.8 °C 34601.5 hPa SW 6 km/h 6 km/h 62 % 0 mm
14:55 -7.4 °C -10.2 °C 34635.4 hPa Calm   7.7 km/h 72 % 0 mm
14:57 -6.6 °C -10.7 °C 34601.5 hPa Calm     63 % 0 mm
15:02 -6.6 °C -10.7 °C 34601.5 hPa SW 3.1 km/h 3.1 km/h 63 % 0 mm
15:05 -7.4 °C -10.3 °C 34635.4 hPa Calm     72 % 0 mm
15:07 -6.7 °C -10.7 °C 34601.5 hPa SW 9 km/h 9 km/h 63 % 0 mm
15:12 -6.7 °C -10.7 °C 34601.5 hPa SW 6 km/h 6 km/h 63 % 0 mm
15:15 -7.6 °C -10.4 °C 34635.4 hPa Calm     72 % 0 mm
15:17 -6.7 °C -10.6 °C 34567.7 hPa SW 6 km/h 6 km/h 64 % 0 mm
15:22 -6.7 °C -10.6 °C 34567.7 hPa SSW 3.1 km/h   64 % 0 mm
15:25 -7.7 °C -10.4 °C 34635.4 hPa Calm   2.6 km/h 73 % 0 mm
15:27 -6.7 °C -10.6 °C 34567.7 hPa WSW 3.7 km/h 3.7 km/h 64 % 0 mm
15:32 -6.7 °C -10.5 °C 34601.5 hPa SW 6 km/h 6 km/h 65 % 0 mm
15:35 -7.8 °C -10.5 °C 34635.4 hPa Calm     73 % 0 mm
15:37 -6.7 °C -10.4 °C 34601.5 hPa SW 3.7 km/h 3.7 km/h 66 % 0 mm
15:42 -6.8 °C -10.4 °C 34601.5 hPa WNW 5.6 km/h 6.3 km/h 66 % 0 mm
15:45 -7.9 °C -10.5 °C 34635.4 hPa Calm     74 % 0 mm
15:47 -6.8 °C -10.6 °C 34601.5 hPa SW 7.6 km/h 7.6 km/h 65 % 0 mm
15:52 -6.8 °C -10.4 °C 34601.5 hPa WSW 6 km/h 6 km/h 66 % 0 mm
15:55 -8 °C -10.6 °C 34635.4 hPa Calm     74 % 0 mm
15:57 -6.9 °C -10.4 °C 34601.5 hPa SW 2.3 km/h   67 % 0 mm
16:02 -6.9 °C -10.4 °C 34601.5 hPa SW 3.7 km/h 3.7 km/h 67 % 0 mm
16:05 -8.1 °C -10.6 °C 34635.4 hPa Calm     75 % 0 mm
16:07 -6.9 °C -10.4 °C 34601.5 hPa SW 6 km/h 6 km/h 67 % 0 mm
16:12 -7 °C -10.5 °C 34601.5 hPa SW 9 km/h 9 km/h 67 % 0 mm
16:15 -8.2 °C -10.7 °C 34635.4 hPa WSW 2.6 km/h 5.1 km/h 75 % 0 mm
16:17 -7.1 °C -10.6 °C 34601.5 hPa SW 3.1 km/h 3.1 km/h 67 % 0 mm
16:22 -7.1 °C -10.4 °C 34601.5 hPa WSW 3.1 km/h   68 % 0 mm
16:25 -8.2 °C -10.6 °C 34601.5 hPa Calm     76 % 0 mm
16:27 -7.1 °C -10.4 °C 34601.5 hPa WSW 3.1 km/h   68 % 0 mm
16:32 -7.1 °C -10.4 °C 34635.4 hPa West 3.1 km/h   68 % 0 mm
16:35 -8.2 °C -10.6 °C 34601.5 hPa Calm     76 % 0 mm
16:37 -7.1 °C -10.3 °C 34635.4 hPa Calm     69 % 0 mm
16:42 -7.1 °C -10.3 °C 34635.4 hPa WSW 3.1 km/h 3.1 km/h 69 % 0 mm
16:45 -8.3 °C -10.7 °C 34601.5 hPa West 2.6 km/h 5.1 km/h 76 % 0 mm
16:47 -7.1 °C -10.3 °C 34635.4 hPa West 3.1 km/h   69 % 0 mm
16:52 -7.1 °C -10.3 °C 34635.4 hPa Calm     69 % 0 mm
16:55 -8.3 °C -10.7 °C 34601.5 hPa Calm   2.6 km/h 76 % 0 mm
16:57 -7.1 °C -10.3 °C 34635.4 hPa SW 3.1 km/h   69 % 0 mm
17:02 -7.1 °C -10.3 °C 34635.4 hPa West 3.1 km/h 3.1 km/h 69 % 0 mm
17:05 -8.4 °C -10.6 °C 34601.5 hPa SSW 2.6 km/h 2.6 km/h 78 % 0 mm
17:07 -7.1 °C -10.3 °C 34635.4 hPa WSW 6 km/h 6 km/h 69 % 0 mm
17:12 -7.1 °C -10.3 °C 34635.4 hPa SW 6 km/h 6 km/h 69 % 0 mm
17:15 -8.4 °C -10.6 °C 34601.5 hPa Calm   2.6 km/h 78 % 0 mm
17:17 -7.1 °C -10.3 °C 34635.4 hPa WSW 5.6 km/h 5.6 km/h 69 % 0 mm
17:22 -7.1 °C -10.2 °C 34635.4 hPa WSW 4.2 km/h 4.2 km/h 70 % 0 mm
17:25 -8.5 °C -10.7 °C 34601.5 hPa Calm     78 % 0 mm
17:27 -7.1 °C -10.2 °C 34635.4 hPa SW 3.1 km/h   70 % 0 mm
17:32 -7.1 °C -10.2 °C 34635.4 hPa WNW 3.1 km/h   70 % 0 mm
17:35 -8.4 °C -10.6 °C 34601.5 hPa Calm   2.6 km/h 78 % 0 mm
17:37 -7.1 °C -10.2 °C 34635.4 hPa SW 6 km/h 6 km/h 70 % 0 mm
17:42 -7.1 °C -10.2 °C 34635.4 hPa WSW 3.1 km/h 3.1 km/h 70 % 0 mm
17:45 -8.4 °C -10.5 °C 34601.5 hPa Calm     79 % 0 mm
17:47 -7.1 °C -10.2 °C 34635.4 hPa WSW 3.1 km/h 3.1 km/h 70 % 0 mm
17:52 -7.1 °C -10.2 °C 34635.4 hPa WSW 3.1 km/h   70 % 0 mm
17:55 -8.5 °C -10.5 °C 34601.5 hPa Calm   5.1 km/h 79 % 0 mm
17:57 -7.1 °C -10.2 °C 34635.4 hPa SW 6 km/h 6 km/h 70 % 0 mm
18:02 -7.1 °C -10.2 °C 34635.4 hPa WSW 6 km/h 6 km/h 70 % 0 mm
18:05 -8.7 °C -10.9 °C 34601.5 hPa Calm   5.1 km/h 78 % 0 mm
18:07 -7.1 °C -10.2 °C 34635.4 hPa WSW 3.1 km/h   70 % 0 mm
18:12 -7.1 °C -10.2 °C 34635.4 hPa SW 3.7 km/h 3.7 km/h 70 % 0 mm
18:15 -8.8 °C -10.8 °C 34635.4 hPa Calm     79 % 0 mm
18:25 -8.8 °C -10.9 °C 34635.4 hPa Calm     79 % 0 mm
18:35 -8.9 °C -10.9 °C 34635.4 hPa South 2.6 km/h 5.1 km/h 79 % 0 mm
18:45 -9.1 °C -11.1 °C 34635.4 hPa SW 5.1 km/h 5.1 km/h 79 % 0 mm
18:55 -9.1 °C -11 °C 34635.4 hPa Calm     80 % 0 mm
19:05 -9.2 °C -10.9 °C 34635.4 hPa Calm     81 % 0 mm
19:15 -9.2 °C -11 °C 34635.4 hPa Calm   2.6 km/h 81 % 0 mm
19:25 -9.2 °C -10.9 °C 34635.4 hPa Calm     82 % 0 mm
19:35 -9.3 °C -11 °C 34635.4 hPa Calm     82 % 0 mm
19:45 -9.3 °C -11 °C 34635.4 hPa WSW 2.6 km/h 5.1 km/h 82 % 0 mm
19:55 -9.4 °C -11.2 °C 34601.5 hPa Calm   2.6 km/h 82 % 0 mm
20:05 -9.4 °C -11.1 °C 34601.5 hPa SW 2.6 km/h 5.1 km/h 83 % 0 mm
20:15 -9.4 °C -11 °C 34601.5 hPa Calm     83 % 0 mm
20:25 -9.4 °C -11.1 °C 34635.4 hPa Calm     83 % 0 mm
20:35 -9.4 °C -11.1 °C 34635.4 hPa Calm     83 % 0 mm
20:45 -9.4 °C -11.1 °C 34635.4 hPa Calm     83 % 0 mm
20:55 -9.4 °C -10.9 °C 34635.4 hPa Calm   2.6 km/h 84 % 0 mm
21:05 -9.4 °C -10.9 °C 34635.4 hPa Calm     84 % 0 mm
21:15 -9.4 °C -10.9 °C 34635.4 hPa NE 2.6 km/h 2.6 km/h 84 % 0 mm
21:25 -9.2 °C -10.7 °C 34635.4 hPa Calm     84 % 0 mm
21:35 -9.2 °C -10.7 °C 34635.4 hPa NE 2.6 km/h 5.1 km/h 84 % 0 mm
21:45 -9.1 °C -10.6 °C 34669.3 hPa Calm   2.6 km/h 84 % 0 mm
21:55 -9.2 °C -10.8 °C 34669.3 hPa Calm     83 % 0 mm
22:05 -9.3 °C -10.9 °C 34669.3 hPa NE 2.6 km/h 5.1 km/h 83 % 0 mm
22:15 -9.3 °C -10.9 °C 34669.3 hPa Calm   2.6 km/h 83 % 0 mm
22:25 -9.2 °C -10.8 °C 34669.3 hPa WSW 2.6 km/h 5.1 km/h 83 % 0 mm
22:35 -9 °C -10.5 °C 34669.3 hPa Calm   2.6 km/h 84 % 0 mm
22:45 -8.9 °C -10.5 °C 34669.3 hPa ENE 5.1 km/h 7.7 km/h 83 % 0 mm
22:55 -8.2 °C -9.9 °C 34669.3 hPa ENE 5.1 km/h 5.1 km/h 82 % 0 mm
23:05 -7.8 °C -9.7 °C 34669.3 hPa Calm   5.1 km/h 80 % 0 mm
23:15 -7.6 °C -9.8 °C 34669.3 hPa ENE 2.6 km/h 5.1 km/h 78 % 0 mm
23:25 -7.1 °C -9.4 °C 34669.3 hPa Calm   5.1 km/h 77 % 0 mm
23:35 -6.9 °C -9.3 °C 34669.3 hPa South 2.6 km/h 5.1 km/h 76 % 0 mm
23:45 -6.5 °C -9.3 °C 34669.3 hPa SSW 2.6 km/h 5.1 km/h 73 % 0 mm
23:55 -6.2 °C -9.1 °C 34635.4 hPa South 2.6 km/h 7.7 km/h 72 % 0 mm
Meteo Sesrovires
Elogis d' Weather Underground - 2 mb

Guio original per  Jim McMurry - jmcmurry@mwt.net Adaptat per a la plantilla per  Wim van der Kuil - Leuven-Template.eu

Trobareu la nostra informacio del temps tambe a:

Weather Underground

AWEKAS